Time;durP1;ratioP1;P1;durP2;ratioP2;P2;SDS_P1;SDS_P2;PMS_P1;PMS_P2;Temp;Humidity;BMP_temperature;BMP_pressure;BME280_temperature;BME280_humidity;BME280_pressure;Samples;Min_cycle;Max_cycle;Signal;HPM_P1;HPM_P2
2024/03/16 00:00:40;;;;;;;2.83;2.30;;;12.60;99.90;;;;;;5052812;28;20314;-71
2024/03/16 00:03:09;;;;;;;6.40;2.57;;;12.40;99.90;;;;;;5052396;28;20242;-74
2024/03/16 00:05:37;;;;;;;2.07;1.97;;;12.40;99.90;;;;;;5052621;28;20191;-71
2024/03/16 00:08:04;;;;;;;2.77;2.57;;;12.40;99.90;;;;;;5052015;28;20206;-71
2024/03/16 00:10:32;;;;;;;2.40;2.20;;;12.30;99.90;;;;;;5051843;28;20206;-71
2024/03/16 00:12:59;;;;;;;2.27;2.17;;;12.40;99.90;;;;;;5051864;28;20198;-73
2024/03/16 00:15:26;;;;;;;2.30;2.00;;;12.40;99.90;;;;;;5051962;28;20776;-71
2024/03/16 00:17:53;;;;;;;2.30;2.20;;;12.40;99.90;;;;;;5049580;28;20215;-73
2024/03/16 00:20:20;;;;;;;2.00;1.90;;;12.40;99.90;;;;;;5052108;28;20215;-73
2024/03/16 00:22:47;;;;;;;2.27;2.00;;;12.40;99.90;;;;;;5052315;28;20223;-72
2024/03/16 00:25:15;;;;;;;2.23;2.00;;;12.30;99.90;;;;;;5052014;28;20267;-72
2024/03/16 00:27:42;;;;;;;2.27;2.03;;;12.20;99.90;;;;;;5052628;28;20218;-72
2024/03/16 00:30:10;;;;;;;1.90;1.80;;;12.20;99.90;;;;;;5052032;28;20252;-72
2024/03/16 00:32:38;;;;;;;2.33;2.13;;;12.10;99.90;;;;;;5052252;28;20211;-72
2024/03/16 00:35:05;;;;;;;2.10;2.00;;;12.00;99.90;;;;;;5052376;28;20227;-72
2024/03/16 00:37:33;;;;;;;1.87;1.67;;;12.00;99.90;;;;;;5065328;28;20628;-72
2024/03/16 00:40:00;;;;;;;2.07;1.97;;;12.10;99.90;;;;;;5052285;28;20217;-71
2024/03/16 00:42:27;;;;;;;1.90;1.80;;;12.20;99.90;;;;;;5052188;28;20293;-72
2024/03/16 00:44:53;;;;;;;2.00;1.90;;;12.20;99.90;;;;;;5052465;28;20249;-72
2024/03/16 00:47:20;;;;;;;2.07;1.97;;;12.10;99.90;;;;;;5052211;28;20258;-72
2024/03/16 00:49:47;;;;;;;2.10;2.00;;;12.10;99.90;;;;;;5052366;28;20294;-73
2024/03/16 00:52:15;;;;;;;2.10;2.00;;;12.10;99.90;;;;;;5052273;28;20210;-73
2024/03/16 00:54:42;;;;;;;2.00;1.90;;;12.10;99.90;;;;;;5052106;28;20199;-73
2024/03/16 00:57:09;;;;;;;2.87;2.13;;;12.10;99.90;;;;;;5048452;28;20207;-73
2024/03/16 00:59:36;;;;;;;2.97;2.07;;;12.00;99.90;;;;;;5036002;28;20219;-72
2024/03/16 01:02:04;;;;;;;2.10;2.00;;;12.00;99.90;;;;;;5035767;28;20203;-72
2024/03/16 01:04:32;;;;;;;2.13;1.93;;;11.90;99.90;;;;;;5036128;28;20211;-72
2024/03/16 01:06:59;;;;;;;1.87;1.77;;;11.90;99.90;;;;;;5046319;28;20738;-72
2024/03/16 01:09:27;;;;;;;4.00;2.50;;;12.00;99.90;;;;;;5055637;28;20301;-72
2024/03/16 01:11:54;;;;;;;4.27;3.40;;;11.90;99.90;;;;;;5055967;28;20234;-72
2024/03/16 01:14:21;;;;;;;2.57;2.40;;;11.90;99.90;;;;;;5055347;28;20342;-72
2024/03/16 01:16:48;;;;;;;2.77;1.97;;;11.90;99.90;;;;;;5055709;28;20330;-72
2024/03/16 01:19:15;;;;;;;2.00;1.90;;;11.90;99.90;;;;;;5071919;28;20321;-72
2024/03/16 01:21:42;;;;;;;2.20;2.00;;;11.80;99.90;;;;;;5071096;28;20751;-72
2024/03/16 01:24:09;;;;;;;1.90;1.80;;;11.90;99.90;;;;;;5070976;28;20198;-72
2024/03/16 01:26:36;;;;;;;1.80;1.70;;;12.00;99.90;;;;;;5071626;28;20298;-72
2024/03/16 01:29:04;;;;;;;2.57;2.37;;;11.90;99.90;;;;;;5055343;28;20199;-72
2024/03/16 01:31:31;;;;;;;2.00;1.90;;;12.10;99.90;;;;;;5071801;28;20302;-72
2024/03/16 01:33:58;;;;;;;3.67;1.90;;;12.10;99.90;;;;;;5071574;28;20290;-73
2024/03/16 01:36:25;;;;;;;1.93;1.83;;;12.10;99.90;;;;;;5054566;28;20320;-72
2024/03/16 01:38:52;;;;;;;2.07;1.97;;;12.00;99.90;;;;;;5054952;28;20234;-72
2024/03/16 01:41:18;;;;;;;1.73;1.63;;;11.90;99.90;;;;;;5054802;28;20284;-72
2024/03/16 01:43:48;;;;;;;1.57;1.57;;;12.00;99.90;;;;;;5054669;28;20286;-73
2024/03/16 01:46:16;;;;;;;2.10;2.00;;;12.10;99.90;;;;;;5054837;28;20230;-72
2024/03/16 01:48:43;;;;;;;2.50;2.20;;;12.20;99.90;;;;;;5054796;28;20217;-73
2024/03/16 01:51:10;;;;;;;1.97;1.87;;;12.20;99.90;;;;;;5054480;28;20205;-73
2024/03/16 01:53:38;;;;;;;2.27;2.03;;;12.20;99.90;;;;;;5070766;28;20206;-72
2024/03/16 01:56:05;;;;;;;2.00;1.90;;;12.30;99.90;;;;;;5054074;28;20830;-72
2024/03/16 01:58:37;;;;;;;1.87;1.77;;;12.30;99.90;;;;;;5054572;28;20297;-72
2024/03/16 02:01:04;;;;;;;1.80;1.70;;;12.10;99.90;;;;;;5054739;28;20202;-72
2024/03/16 02:03:31;;;;;;;2.10;1.97;;;11.90;99.90;;;;;;5054558;28;20215;-72
2024/03/16 02:05:58;;;;;;;2.10;2.00;;;11.80;99.90;;;;;;5054283;28;20885;-72
2024/03/16 02:08:27;;;;;;;2.47;2.00;;;11.90;99.90;;;;;;5053658;28;20337;-73
2024/03/16 02:10:53;;;;;;;1.90;1.80;;;12.00;99.90;;;;;;5054299;28;20214;-73
2024/03/16 02:13:20;;;;;;;1.50;1.47;;;12.10;99.90;;;;;;5054005;28;20631;-74
2024/03/16 02:15:47;;;;;;;2.40;1.70;;;12.00;99.90;;;;;;5054474;28;20300;-73
2024/03/16 02:18:14;;;;;;;1.80;1.70;;;12.10;99.90;;;;;;5054041;28;20366;-73
2024/03/16 02:20:40;;;;;;;1.70;1.60;;;12.00;99.90;;;;;;5053739;28;20199;-71
2024/03/16 02:23:07;;;;;;;1.70;1.60;;;12.00;99.90;;;;;;5070503;28;20732;-72
2024/03/16 02:25:34;;;;;;;2.60;1.60;;;11.90;99.90;;;;;;5070265;28;20329;-73
2024/03/16 02:28:01;;;;;;;2.33;2.13;;;11.80;99.90;;;;;;5070639;28;20616;-72
2024/03/16 02:30:28;;;;;;;1.83;1.73;;;11.90;99.90;;;;;;5053314;28;20790;-72
2024/03/16 02:32:55;;;;;;;2.10;1.90;;;11.90;99.90;;;;;;5050525;28;20345;-72
2024/03/16 02:35:22;;;;;;;1.80;1.70;;;12.00;99.90;;;;;;5033890;28;20636;-72
2024/03/16 02:37:49;;;;;;;2.30;1.60;;;12.00;99.90;;;;;;5034116;28;20945;-72
2024/03/16 02:40:17;;;;;;;1.47;1.47;;;12.00;99.90;;;;;;5033593;28;20204;-72
2024/03/16 02:42:43;;;;;;;1.60;1.50;;;11.90;99.90;;;;;;5034145;28;20582;-72
2024/03/16 02:45:10;;;;;;;1.63;1.37;;;11.90;99.90;;;;;;5052577;28;20293;-72
2024/03/16 02:47:37;;;;;;;1.83;1.33;;;11.80;99.90;;;;;;5053963;28;20572;-72
2024/03/16 02:50:04;;;;;;;1.67;1.57;;;11.80;99.90;;;;;;5053594;28;20960;-71
2024/03/16 02:52:32;;;;;;;1.40;1.30;;;11.80;99.90;;;;;;5053860;28;20246;-71
2024/03/16 02:54:59;;;;;;;2.13;1.93;;;11.80;99.90;;;;;;5053743;28;20300;-72
2024/03/16 02:57:26;;;;;;;1.57;1.47;;;11.70;99.90;;;;;;5053284;28;20238;-71
2024/03/16 02:59:53;;;;;;;1.60;1.50;;;11.70;99.90;;;;;;5053356;28;20689;-72
2024/03/16 03:02:23;;;;;;;1.90;1.57;;;11.70;99.90;;;;;;5053541;28;20287;-73
2024/03/16 03:04:50;;;;;;;1.50;1.40;;;11.70;99.90;;;;;;5054472;28;20556;-73
2024/03/16 03:07:17;;;;;;;1.50;1.40;;;11.80;99.90;;;;;;5057949;28;20198;-73
2024/03/16 03:09:44;;;;;;;1.33;1.23;;;11.80;99.90;;;;;;5057993;28;20293;-73
2024/03/16 03:12:11;;;;;;;1.63;1.43;;;11.90;99.90;;;;;;5058265;28;20206;-73
2024/03/16 03:14:38;;;;;;;7.03;1.37;;;11.80;99.90;;;;;;5052629;28;20325;-73
2024/03/16 03:17:05;;;;;;;1.40;1.30;;;11.80;99.90;;;;;;5052889;28;20230;-73
2024/03/16 03:19:32;;;;;;;1.30;1.30;;;11.90;99.90;;;;;;5052405;28;20305;-73
2024/03/16 03:21:59;;;;;;;1.50;1.37;;;11.80;99.90;;;;;;5052460;28;20238;-73
2024/03/16 03:24:26;;;;;;;1.83;1.40;;;11.70;99.90;;;;;;5052491;28;20399;-73
2024/03/16 03:26:54;;;;;;;1.70;1.33;;;11.70;99.90;;;;;;5052781;28;20208;-73
2024/03/16 03:29:21;;;;;;;1.30;1.30;;;11.60;99.90;;;;;;5048688;28;20199;-73
2024/03/16 03:31:48;;;;;;;1.60;1.50;;;11.60;99.90;;;;;;5033073;28;20294;-73
2024/03/16 03:34:15;;;;;;;1.60;1.50;;;11.60;99.90;;;;;;5032677;28;20264;-73
2024/03/16 03:36:44;;;;;;;1.23;1.23;;;11.50;99.90;;;;;;5032989;28;20259;-72
2024/03/16 03:39:14;;;;;;;1.57;1.47;;;11.50;99.90;;;;;;5033230;28;20998;-73
2024/03/16 03:41:44;;;;;;;1.50;1.40;;;11.60;99.90;;;;;;5039530;28;20198;-72
2024/03/16 03:44:20;;;;;;;2.00;1.30;;;11.70;99.90;;;;;;5052299;28;20209;-72
2024/03/16 03:46:50;;;;;;;1.43;1.33;;;11.80;99.90;;;;;;5055095;28;20257;-72
2024/03/16 03:49:28;;;;;;;1.43;1.33;;;11.90;99.90;;;;;;5053591;28;20186;-72
2024/03/16 03:51:57;;;;;;;1.50;1.40;;;11.80;99.90;;;;;;5055416;28;20570;-72
2024/03/16 03:54:24;;;;;;;1.40;1.37;;;11.70;99.90;;;;;;5052750;28;20630;-72
2024/03/16 03:56:50;;;;;;;1.50;1.40;;;11.60;99.90;;;;;;5068237;28;20704;-72
2024/03/16 03:59:17;;;;;;;1.37;1.27;;;11.70;99.90;;;;;;5057205;28;20214;-73
2024/03/16 04:01:44;;;;;;;2.03;1.47;;;11.60;99.90;;;;;;5055692;28;20279;-76
2024/03/16 04:04:11;;;;;;;1.37;1.27;;;11.60;99.90;;;;;;5057815;28;20638;-75
2024/03/16 04:06:40;;;;;;;1.43;1.10;;;11.60;99.90;;;;;;5060478;28;20290;-75
2024/03/16 04:09:08;;;;;;;1.23;1.23;;;11.60;99.90;;;;;;5061129;28;20657;-72
2024/03/16 04:11:35;;;;;;;2.50;1.37;;;11.60;99.90;;;;;;5063008;28;20721;-71
2024/03/16 04:14:02;;;;;;;1.30;1.30;;;11.70;99.90;;;;;;5052022;28;20233;-72
2024/03/16 04:16:29;;;;;;;1.60;1.50;;;11.70;99.90;;;;;;5068796;28;20238;-71
2024/03/16 04:18:56;;;;;;;1.40;1.30;;;11.70;99.90;;;;;;5068959;28;20202;-72
2024/03/16 04:21:23;;;;;;;1.40;1.30;;;11.70;99.90;;;;;;5068616;28;20325;-72
2024/03/16 04:23:50;;;;;;;1.53;1.43;;;11.70;99.90;;;;;;5067923;28;20306;-72
2024/03/16 04:26:17;;;;;;;2.60;1.47;;;11.70;99.90;;;;;;5052138;28;20228;-72
2024/03/16 04:28:44;;;;;;;1.13;1.13;;;11.70;99.90;;;;;;5052191;28;20206;-72
2024/03/16 04:31:11;;;;;;;1.97;1.30;;;11.70;99.90;;;;;;5052442;28;20246;-71
2024/03/16 04:33:38;;;;;;;1.27;1.17;;;11.60;99.90;;;;;;5055494;28;20294;-72
2024/03/16 04:36:07;;;;;;;1.53;1.40;;;11.70;99.90;;;;;;5072449;28;20262;-71
2024/03/16 04:38:34;;;;;;;2.40;1.40;;;11.70;99.90;;;;;;5060325;28;20206;-71
2024/03/16 04:41:02;;;;;;;1.50;1.30;;;11.60;99.90;;;;;;5056754;28;20195;-72
2024/03/16 04:43:29;;;;;;;1.40;1.30;;;11.60;99.90;;;;;;5056161;28;20739;-72
2024/03/16 04:45:56;;;;;;;1.40;1.30;;;11.60;99.90;;;;;;5055737;28;20792;-72
2024/03/16 04:48:23;;;;;;;1.17;1.13;;;11.60;99.90;;;;;;5055841;28;20294;-72
2024/03/16 04:50:50;;;;;;;1.47;1.30;;;11.50;99.90;;;;;;5055883;28;20674;-71
2024/03/16 04:53:17;;;;;;;1.60;1.50;;;11.50;99.90;;;;;;5054833;28;20214;-72
2024/03/16 04:55:44;;;;;;;1.60;1.50;;;11.50;99.90;;;;;;5072347;28;20281;-71
2024/03/16 04:58:11;;;;;;;2.17;1.23;;;11.40;99.90;;;;;;5071941;28;20238;-71
2024/03/16 05:00:37;;;;;;;1.97;1.53;;;11.40;99.90;;;;;;5055475;28;20246;-71
2024/03/16 05:03:05;;;;;;;1.47;1.37;;;11.40;99.90;;;;;;5055599;28;20294;-72
2024/03/16 05:05:32;;;;;;;1.23;1.20;;;11.40;99.90;;;;;;5071532;28;20249;-71
2024/03/16 05:07:59;;;;;;;0.93;0.90;;;11.40;99.90;;;;;;5072011;28;20308;-74
2024/03/16 05:10:25;;;;;;;1.30;1.20;;;11.40;99.90;;;;;;5072118;28;20242;-73
2024/03/16 05:12:52;;;;;;;2.67;1.20;;;11.40;99.90;;;;;;5072198;28;20203;-74
2024/03/16 05:15:20;;;;;;;1.33;1.03;;;11.50;99.90;;;;;;5071701;28;20647;-73
2024/03/16 05:17:47;;;;;;;1.27;1.07;;;11.40;99.90;;;;;;5055511;28;20260;-74
2024/03/16 05:20:14;;;;;;;1.47;1.37;;;11.30;99.90;;;;;;5055303;28;20302;-73
2024/03/16 05:22:41;;;;;;;2.00;1.30;;;11.20;99.90;;;;;;5055574;28;20206;-71
2024/03/16 05:25:08;;;;;;;1.30;1.20;;;11.10;99.90;;;;;;5055089;28;20242;-71
2024/03/16 05:27:36;;;;;;;1.30;1.20;;;11.20;99.90;;;;;;5055314;28;20256;-71
2024/03/16 05:30:07;;;;;;;1.30;1.20;;;11.10;99.90;;;;;;5055283;28;20214;-72
2024/03/16 05:32:34;;;;;;;2.20;1.00;;;11.10;99.90;;;;;;5055265;28;20699;-71
2024/03/16 05:35:01;;;;;;;3.60;1.60;;;11.10;99.90;;;;;;5054815;28;20210;-71
2024/03/16 05:37:28;;;;;;;2.70;1.20;;;11.20;99.90;;;;;;5055153;28;20263;-71
2024/03/16 05:39:55;;;;;;;1.23;1.20;;;11.10;99.90;;;;;;5054649;28;20215;-71
2024/03/16 05:42:22;;;;;;;3.73;1.37;;;11.20;99.90;;;;;;5054110;28;20320;-72
2024/03/16 05:44:50;;;;;;;1.50;1.30;;;11.20;99.90;;;;;;5051136;28;20214;-72
2024/03/16 05:47:21;;;;;;;1.80;1.57;;;11.20;99.90;;;;;;5051444;28;20204;-72
2024/03/16 05:49:48;;;;;;;2.83;1.30;;;11.10;99.90;;;;;;5062999;28;20225;-72
2024/03/16 05:52:15;;;;;;;1.87;1.33;;;11.10;99.90;;;;;;5054261;28;20638;-72
2024/03/16 05:54:42;;;;;;;2.43;1.30;;;11.10;99.90;;;;;;5054341;28;20742;-72
2024/03/16 05:57:09;;;;;;;2.13;1.60;;;11.00;99.90;;;;;;5054156;28;20354;-73
2024/03/16 05:59:36;;;;;;;2.50;1.50;;;11.10;99.90;;;;;;5054400;28;20545;-73
2024/03/16 06:02:03;;;;;;;2.27;1.10;;;11.10;99.90;;;;;;5054281;28;20763;-73
2024/03/16 06:04:30;;;;;;;1.27;1.17;;;11.10;99.90;;;;;;5054355;28;20504;-73
2024/03/16 06:06:57;;;;;;;1.30;1.23;;;11.10;99.90;;;;;;5070884;28;20228;-72
2024/03/16 06:09:24;;;;;;;1.97;1.37;;;11.10;99.90;;;;;;5070722;28;20614;-72
2024/03/16 06:11:51;;;;;;;3.53;1.50;;;11.10;99.90;;;;;;5070923;28;20664;-71
2024/03/16 06:14:18;;;;;;;1.37;1.17;;;11.10;99.90;;;;;;5070143;28;20274;-72
2024/03/16 06:16:45;;;;;;;1.40;1.30;;;11.10;99.90;;;;;;5054141;28;20310;-71
2024/03/16 06:19:13;;;;;;;2.10;1.00;;;11.10;99.90;;;;;;5070890;28;20202;-72
2024/03/16 06:21:40;;;;;;;1.67;1.43;;;11.10;99.90;;;;;;5054420;28;20203;-71
2024/03/16 06:24:07;;;;;;;4.23;1.60;;;11.20;99.90;;;;;;5054276;28;20207;-71
2024/03/16 06:26:36;;;;;;;1.87;1.20;;;11.20;99.90;;;;;;5054100;28;20217;-71
2024/03/16 06:29:08;;;;;;;1.43;1.13;;;11.20;99.90;;;;;;5054103;28;20726;-72
2024/03/16 06:31:37;;;;;;;4.77;1.40;;;11.20;99.90;;;;;;5071453;28;20295;-71
2024/03/16 06:34:04;;;;;;;1.10;1.00;;;11.30;99.90;;;;;;5070188;28;20297;-72
2024/03/16 06:36:32;;;;;;;1.90;1.20;;;11.20;99.90;;;;;;5070172;28;20206;-72
2024/03/16 06:39:00;;;;;;;2.90;1.23;;;11.10;99.90;;;;;;5069962;28;20218;-72
2024/03/16 06:41:27;;;;;;;2.23;1.50;;;11.20;99.90;;;;;;5053769;28;20210;-73
2024/03/16 06:43:54;;;;;;;4.20;1.77;;;11.20;99.90;;;;;;5053313;28;20194;-73
2024/03/16 06:46:22;;;;;;;3.00;1.50;;;11.20;99.90;;;;;;5069779;28;20233;-73
2024/03/16 06:48:49;;;;;;;3.40;1.43;;;11.30;99.90;;;;;;5053757;28;20206;-73
2024/03/16 06:51:17;;;;;;;3.23;1.50;;;11.30;99.90;;;;;;5053092;28;20223;-73
2024/03/16 06:53:44;;;;;;;2.00;1.30;;;11.30;99.90;;;;;;5063518;28;20230;-73
2024/03/16 06:56:13;;;;;;;3.03;1.40;;;11.30;99.90;;;;;;5050241;28;20269;-73
2024/03/16 06:58:40;;;;;;;1.80;1.40;;;11.30;99.90;;;;;;5066515;28;20235;-73
2024/03/16 07:01:11;;;;;;;1.57;1.10;;;11.40;99.90;;;;;;5052631;28;20210;-73
2024/03/16 07:03:38;;;;;;;3.50;1.27;;;11.40;99.90;;;;;;5054132;28;20191;-73
2024/03/16 07:06:06;;;;;;;4.17;1.67;;;11.40;99.90;;;;;;5069932;28;20643;-73
2024/03/16 07:08:33;;;;;;;1.70;1.30;;;11.40;99.90;;;;;;5069854;28;20213;-74
2024/03/16 07:11:00;;;;;;;3.03;1.13;;;11.40;99.90;;;;;;5066269;28;20705;-74
2024/03/16 07:13:27;;;;;;;2.50;1.47;;;11.40;99.90;;;;;;5053024;28;20269;-73
2024/03/16 07:15:55;;;;;;;1.73;1.33;;;11.50;99.90;;;;;;5052843;28;20286;-73
2024/03/16 07:18:23;;;;;;;3.33;1.60;;;11.50;99.90;;;;;;5053403;28;20321;-73
2024/03/16 07:20:50;;;;;;;2.97;1.47;;;11.50;99.90;;;;;;5053380;28;20210;-72
2024/03/16 07:23:17;;;;;;;2.63;1.10;;;11.50;99.90;;;;;;5052708;28;20293;-73
2024/03/16 07:25:49;;;;;;;2.97;1.50;;;11.50;99.90;;;;;;5052248;28;20202;-73
2024/03/16 07:28:16;;;;;;;1.50;1.23;;;11.50;99.90;;;;;;5052122;28;20201;-72
2024/03/16 07:30:43;;;;;;;4.10;1.60;;;11.50;99.90;;;;;;5069600;28;20242;-72
2024/03/16 07:33:11;;;;;;;1.87;1.07;;;11.50;99.90;;;;;;5069451;28;20302;-72
2024/03/16 07:35:39;;;;;;;2.30;1.30;;;11.60;99.90;;;;;;5069620;28;20233;-72
2024/03/16 07:38:06;;;;;;;3.30;1.20;;;11.60;99.90;;;;;;5069223;28;20317;-72
2024/03/16 07:40:33;;;;;;;2.50;1.00;;;11.70;99.90;;;;;;5058878;28;20619;-73
2024/03/16 07:43:01;;;;;;;2.83;1.33;;;11.60;99.90;;;;;;5048651;28;20725;-73
2024/03/16 07:45:28;;;;;;;1.63;1.20;;;11.60;99.90;;;;;;5052040;28;21019;-73
2024/03/16 07:47:55;;;;;;;2.77;1.00;;;11.70;99.90;;;;;;5068939;28;20831;-73
2024/03/16 07:50:22;;;;;;;3.23;1.30;;;11.70;99.90;;;;;;5069156;28;20207;-73
2024/03/16 07:52:49;;;;;;;2.00;1.03;;;11.70;99.90;;;;;;5068958;28;20217;-73
2024/03/16 07:55:16;;;;;;;2.30;1.10;;;11.70;99.90;;;;;;5068519;28;20238;-73
2024/03/16 07:57:43;;;;;;;2.63;1.07;;;11.70;99.90;;;;;;5068491;28;20673;-73
2024/03/16 08:00:11;;;;;;;4.30;1.87;;;11.80;99.90;;;;;;5052325;28;20211;-73
2024/03/16 08:02:41;;;;;;;3.30;1.50;;;11.70;99.90;;;;;;5052743;28;20198;-73
2024/03/16 08:05:11;;;;;;;1.93;1.13;;;11.80;99.90;;;;;;5053200;28;20201;-73
2024/03/16 08:07:39;;;;;;;1.07;1.00;;;11.80;99.90;;;;;;5051486;28;20213;-73
2024/03/16 08:10:07;;;;;;;2.70;1.10;;;11.80;99.90;;;;;;5052628;28;20213;-74
2024/03/16 08:12:34;;;;;;;2.63;0.80;;;11.80;99.90;;;;;;5052881;28;20203;-75
2024/03/16 08:15:01;;;;;;;2.63;1.50;;;11.90;99.90;;;;;;5052114;28;20287;-74
2024/03/16 08:17:28;;;;;;;3.90;1.57;;;11.90;99.90;;;;;;5068867;28;20262;-74
2024/03/16 08:19:56;;;;;;;3.43;1.10;;;11.80;99.90;;;;;;5068600;28;20242;-74
2024/03/16 08:22:23;;;;;;;1.43;1.03;;;11.90;99.90;;;;;;5068962;28;20638;-74
2024/03/16 08:24:50;;;;;;;2.43;1.20;;;12.00;99.90;;;;;;5051956;28;20207;-74
2024/03/16 08:27:17;;;;;;;3.30;1.13;;;12.00;99.90;;;;;;5052060;28;20273;-74
2024/03/16 08:29:44;;;;;;;2.60;1.17;;;11.90;99.90;;;;;;5052341;28;20750;-75
2024/03/16 08:32:12;;;;;;;1.87;1.30;;;12.00;99.90;;;;;;5052073;28;20605;-72
2024/03/16 08:34:39;;;;;;;2.63;1.10;;;12.00;99.90;;;;;;5051873;28;20266;-73
2024/03/16 08:37:06;;;;;;;3.33;1.17;;;12.00;99.90;;;;;;5068326;28;20841;-73
2024/03/16 08:39:33;;;;;;;2.40;1.20;;;12.10;99.90;;;;;;5063519;28;20191;-73
2024/03/16 08:42:00;;;;;;;1.83;1.10;;;12.10;99.90;;;;;;5050974;28;20571;-73
2024/03/16 08:44:28;;;;;;;3.53;1.23;;;12.10;99.90;;;;;;5068233;28;20990;-73
2024/03/16 08:46:55;;;;;;;1.67;0.90;;;12.10;99.90;;;;;;5068937;28;20214;-73
2024/03/16 08:49:22;;;;;;;1.70;1.30;;;12.10;99.90;;;;;;5068301;28;20297;-73
2024/03/16 08:51:49;;;;;;;2.27;1.30;;;12.10;99.90;;;;;;5068625;28;20320;-73
2024/03/16 08:54:16;;;;;;;3.27;1.03;;;12.10;99.90;;;;;;5051777;28;20286;-72
2024/03/16 08:56:43;;;;;;;1.97;1.13;;;12.10;99.90;;;;;;5051434;28;20749;-72
2024/03/16 08:59:10;;;;;;;1.33;1.20;;;12.20;99.90;;;;;;5051574;28;20321;-73
2024/03/16 09:01:38;;;;;;;2.67;0.90;;;12.20;99.90;;;;;;5051776;28;20750;-71
2024/03/16 09:04:07;;;;;;;2.50;1.20;;;12.20;99.90;;;;;;5049808;28;20239;-71
2024/03/16 09:06:35;;;;;;;3.60;1.00;;;12.20;99.90;;;;;;5037953;28;20191;-74
2024/03/16 09:09:03;;;;;;;3.33;1.43;;;12.30;99.90;;;;;;5068679;28;20641;-74
2024/03/16 09:11:30;;;;;;;1.30;1.17;;;12.40;99.90;;;;;;5068228;28;20217;-73
2024/03/16 09:14:05;;;;;;;4.63;1.20;;;12.50;99.90;;;;;;5067978;28;20244;-73
2024/03/16 09:16:32;;;;;;;2.00;0.90;;;12.50;99.90;;;;;;5068800;28;20552;-74
2024/03/16 09:18:59;;;;;;;2.13;0.93;;;12.70;99.90;;;;;;5066821;28;20309;-74
2024/03/16 09:21:29;;;;;;;1.30;1.20;;;12.70;99.90;;;;;;5055026;28;20198;-72
2024/03/16 09:23:57;;;;;;;1.60;1.37;;;12.90;99.90;;;;;;5055725;28;20211;-71
2024/03/16 09:26:24;;;;;;;4.17;1.40;;;13.10;99.90;;;;;;5055427;28;20211;-71
2024/03/16 09:28:52;;;;;;;1.90;1.10;;;13.30;99.90;;;;;;5055703;28;20211;-71
2024/03/16 09:31:19;;;;;;;2.00;1.80;;;13.50;99.90;;;;;;5055278;28;20566;-71
2024/03/16 09:33:47;;;;;;;2.03;1.77;;;13.60;99.90;;;;;;5055788;28;20615;-71
2024/03/16 09:36:14;;;;;;;2.83;1.70;;;13.60;99.90;;;;;;5055397;28;20210;-71
2024/03/16 09:38:40;;;;;;;3.10;2.07;;;13.60;99.90;;;;;;5054851;28;20231;-72
2024/03/16 09:41:08;;;;;;;1.93;1.83;;;13.60;99.90;;;;;;5071276;28;20237;-72
2024/03/16 09:43:35;;;;;;;2.13;1.80;;;13.60;99.90;;;;;;5071405;28;20263;-72
2024/03/16 09:46:02;;;;;;;2.13;1.90;;;13.70;99.90;;;;;;5071647;28;20259;-72
2024/03/16 09:48:30;;;;;;;2.47;1.77;;;13.80;99.90;;;;;;5071591;28;20700;-71
2024/03/16 09:50:57;;;;;;;4.13;1.83;;;13.90;99.90;;;;;;5063646;28;20735;-71
2024/03/16 09:53:28;;;;;;;2.00;1.80;;;13.80;99.90;;;;;;5051163;28;20203;-71
2024/03/16 09:55:57;;;;;;;1.80;1.40;;;13.90;99.90;;;;;;5069304;28;20202;-71
2024/03/16 09:58:24;;;;;;;2.00;1.80;;;14.00;99.90;;;;;;5071590;28;20231;-72
2024/03/16 10:00:51;;;;;;;3.13;2.27;;;14.10;99.90;;;;;;5054770;28;20298;-72
2024/03/16 10:03:18;;;;;;;2.93;2.00;;;14.00;99.90;;;;;;5054744;28;20290;-72
2024/03/16 10:05:45;;;;;;;2.50;2.30;;;13.90;99.90;;;;;;5054780;28;20202;-72
2024/03/16 10:08:17;;;;;;;2.70;2.50;;;13.80;99.90;;;;;;5054335;28;20705;-72
2024/03/16 10:10:44;;;;;;;3.13;2.10;;;13.70;99.90;;;;;;5055047;28;20254;-74
2024/03/16 10:13:11;;;;;;;3.13;2.40;;;13.50;99.90;;;;;;5054584;28;20233;-72
2024/03/16 10:15:42;;;;;;;3.40;2.70;;;13.30;99.90;;;;;;5054706;28;20199;-72
2024/03/16 10:18:10;;;;;;;3.27;2.43;;;13.10;99.90;;;;;;5054655;28;20242;-72
2024/03/16 10:20:37;;;;;;;4.13;2.60;;;13.00;99.90;;;;;;5053216;28;20211;-71
2024/03/16 10:23:04;;;;;;;3.43;3.00;;;12.90;99.90;;;;;;5052107;28;20673;-71
2024/03/16 10:25:32;;;;;;;4.23;3.10;;;12.60;99.90;;;;;;5051909;28;20203;-71
2024/03/16 10:27:59;;;;;;;3.63;3.43;;;12.40;99.90;;;;;;5041089;28;20207;-72
2024/03/16 10:30:26;;;;;;;4.57;3.40;;;12.30;99.90;;;;;;5032005;28;20803;-72
2024/03/16 10:32:54;;;;;;;6.23;3.83;;;12.10;99.90;;;;;;5051886;28;20238;-71
2024/03/16 10:35:25;;;;;;;6.00;4.13;;;12.10;99.90;;;;;;5052901;28;20198;-72
2024/03/16 10:37:52;;;;;;;5.77;3.70;;;12.00;99.90;;;;;;5053972;28;20608;-72
2024/03/16 10:40:19;;;;;;;4.57;4.10;;;11.90;99.90;;;;;;5052129;28;20210;-72
2024/03/16 10:42:46;;;;;;;4.67;4.23;;;11.90;99.90;;;;;;5052247;28;20668;-71
2024/03/16 10:45:17;;;;;;;5.63;4.30;;;11.90;99.90;;;;;;5068446;28;20233;-72
2024/03/16 10:47:45;;;;;;;4.67;4.03;;;11.90;99.90;;;;;;5068981;28;20207;-71
2024/03/16 10:50:12;;;;;;;4.53;4.13;;;11.80;99.90;;;;;;5068369;28;20317;-72
2024/03/16 10:52:41;;;;;;;3.87;3.57;;;12.00;99.90;;;;;;5067659;28;20209;-72
2024/03/16 10:55:09;;;;;;;7.13;4.23;;;12.00;99.90;;;;;;5068303;28;20238;-72
2024/03/16 10:57:39;;;;;;;5.20;4.07;;;12.00;99.90;;;;;;5067499;28;20252;-72
2024/03/16 11:00:13;;;;;;;5.17;4.27;;;12.00;99.90;;;;;;5052381;28;20218;-72
2024/03/16 11:02:53;;;;;;;5.00;4.23;;;12.10;99.90;;;;;;5052948;28;20205;-71
2024/03/16 11:05:36;;;;;;;4.90;4.37;;;12.20;99.90;;;;;;5067871;28;20233;-71
2024/03/16 11:08:23;;;;;;;5.93;4.47;;;12.20;99.90;;;;;;5068638;28;20195;-71
2024/03/16 11:10:50;;;;;;;5.43;4.53;;;12.20;99.90;;;;;;5067795;28;20251;-72
2024/03/16 11:13:17;;;;;;;4.70;4.07;;;12.30;99.90;;;;;;5034187;28;20685;-71
2024/03/16 11:15:45;;;;;;;4.73;4.27;;;12.30;99.90;;;;;;5068147;28;20195;-72
2024/03/16 11:18:43;;;;;;;4.87;4.10;;;12.30;99.90;;;;;;5068241;28;20779;-72
2024/03/16 11:21:16;;;;;;;4.80;4.43;;;12.10;99.90;;;;;;5068473;28;20214;-71
2024/03/16 11:23:44;;;;;;;4.07;3.77;;;12.00;99.90;;;;;;5052200;28;20252;-71
2024/03/16 11:26:38;;;;;;;5.03;4.60;;;12.00;99.90;;;;;;5050709;28;20203;-72
2024/03/16 11:29:18;;;;;;;5.00;4.53;;;12.00;99.90;;;;;;5033717;28;20548;-72
2024/03/16 11:31:46;;;;;;;5.23;4.73;;;12.00;99.90;;;;;;5051069;28;20359;-72
2024/03/16 11:34:14;;;;;;;5.20;4.80;;;11.90;99.90;;;;;;5057099;28;20256;-71
2024/03/16 11:36:44;;;;;;;5.30;4.80;;;11.80;99.90;;;;;;5054533;28;20816;-71
2024/03/16 11:39:16;;;;;;;4.73;4.37;;;11.70;99.90;;;;;;5053788;28;20850;-71
2024/03/16 11:41:42;;;;;;;4.87;4.33;;;11.60;99.90;;;;;;5050883;28;20491;-71
2024/03/16 11:44:12;;;;;;;4.60;4.30;;;11.40;99.90;;;;;;5050764;28;20203;-71
2024/03/16 11:46:38;;;;;;;5.00;4.27;;;11.30;99.90;;;;;;5051562;28;20259;-72
2024/03/16 11:49:09;;;;;;;4.47;4.17;;;11.30;99.90;;;;;;5050789;28;20211;-72
2024/03/16 11:51:36;;;;;;;4.63;4.33;;;11.30;99.90;;;;;;5052111;28;20190;-71
2024/03/16 11:54:03;;;;;;;4.30;3.90;;;11.30;99.90;;;;;;5051042;28;20214;-71
2024/03/16 11:56:29;;;;;;;3.93;3.30;;;11.30;99.90;;;;;;5050750;28;20207;-72
2024/03/16 11:58:56;;;;;;;3.93;3.30;;;11.20;99.90;;;;;;5067664;28;20292;-73
2024/03/16 12:01:22;;;;;;;3.67;3.37;;;11.00;99.90;;;;;;5068107;28;20229;-72
2024/03/16 12:03:51;;;;;;;3.60;2.93;;;11.00;99.90;;;;;;5051582;28;20233;-71
2024/03/16 12:06:18;;;;;;;4.53;3.47;;;11.00;99.90;;;;;;5051097;28;20206;-72
2024/03/16 12:08:45;;;;;;;3.37;3.10;;;10.90;99.90;;;;;;5051062;28;20218;-72
2024/03/16 12:11:11;;;;;;;4.00;3.70;;;10.90;99.90;;;;;;5050575;28;20203;-71
2024/03/16 12:13:38;;;;;;;4.00;3.70;;;10.90;99.90;;;;;;5067319;28;20257;-72
2024/03/16 12:16:05;;;;;;;4.07;3.77;;;10.90;99.90;;;;;;5050628;28;20207;-72
2024/03/16 12:18:32;;;;;;;4.10;3.80;;;11.00;99.90;;;;;;5051155;28;20229;-72
2024/03/16 12:20:58;;;;;;;4.60;4.30;;;10.90;99.90;;;;;;5058583;28;20294;-71
2024/03/16 12:23:28;;;;;;;4.73;4.20;;;10.90;99.90;;;;;;5065715;28;20199;-71
2024/03/16 12:25:54;;;;;;;4.37;4.00;;;10.90;99.90;;;;;;5051271;28;20206;-72
2024/03/16 12:28:22;;;;;;;4.07;3.70;;;10.80;99.90;;;;;;5047430;28;20265;-75
2024/03/16 12:30:48;;;;;;;3.80;3.50;;;10.80;99.90;;;;;;5031245;28;20281;-71
2024/03/16 12:33:15;;;;;;;4.20;3.77;;;10.80;99.90;;;;;;5030693;28;20556;-72
2024/03/16 12:35:41;;;;;;;4.07;3.67;;;10.90;99.90;;;;;;5036888;28;20203;-72
2024/03/16 12:38:10;;;;;;;4.67;4.27;;;10.90;99.90;;;;;;5066910;28;20207;-72
2024/03/16 12:40:36;;;;;;;4.53;4.13;;;10.80;99.90;;;;;;5050885;28;20575;-72
2024/03/16 12:43:03;;;;;;;3.97;3.67;;;10.70;99.90;;;;;;5050938;28;20666;-72
2024/03/16 12:45:29;;;;;;;2.63;2.53;;;10.60;99.90;;;;;;5050903;28;20309;-72
2024/03/16 12:47:56;;;;;;;3.13;2.47;;;10.40;99.90;;;;;;5049604;28;20574;-72
2024/03/16 12:50:22;;;;;;;2.70;2.50;;;10.50;99.90;;;;;;5046770;28;20211;-72